sensor_id;sensor_type;location;lat;lon;timestamp;temperature;humidity
32147;DHT22;32190;49.112;8.598;2022-10-19T00:05:41;21.20;60.90
32147;DHT22;32190;49.112;8.598;2022-10-19T00:11:33;21.10;61.80
32147;DHT22;32190;49.112;8.598;2022-10-19T00:17:24;21.10;62.00
32147;DHT22;32190;49.112;8.598;2022-10-19T00:23:15;21.00;61.60
32147;DHT22;32190;49.112;8.598;2022-10-19T00:29:05;21.00;61.40
32147;DHT22;32190;49.112;8.598;2022-10-19T00:34:56;21.00;61.00
32147;DHT22;32190;49.112;8.598;2022-10-19T00:40:47;20.90;61.50
32147;DHT22;32190;49.112;8.598;2022-10-19T00:46:43;20.90;61.70
32147;DHT22;32190;49.112;8.598;2022-10-19T00:52:34;20.90;61.70
32147;DHT22;32190;49.112;8.598;2022-10-19T00:58:24;20.90;61.60
32147;DHT22;32190;49.112;8.598;2022-10-19T01:04:15;20.80;61.50
32147;DHT22;32190;49.112;8.598;2022-10-19T01:10:06;20.70;61.60
32147;DHT22;32190;49.112;8.598;2022-10-19T01:16:08;20.60;61.80
32147;DHT22;32190;49.112;8.598;2022-10-19T01:46:18;20.60;61.70
32147;DHT22;32190;49.112;8.598;2022-10-19T01:52:13;20.50;61.60
32147;DHT22;32190;49.112;8.598;2022-10-19T01:58:07;20.40;61.80
32147;DHT22;32190;49.112;8.598;2022-10-19T02:03:59;20.40;61.80
32147;DHT22;32190;49.112;8.598;2022-10-19T02:09:50;20.30;61.70
32147;DHT22;32190;49.112;8.598;2022-10-19T02:15:44;20.30;61.50
32147;DHT22;32190;49.112;8.598;2022-10-19T02:21:35;20.20;61.40
32147;DHT22;32190;49.112;8.598;2022-10-19T02:27:26;20.10;61.50
32147;DHT22;32190;49.112;8.598;2022-10-19T02:33:16;20.10;61.90
32147;DHT22;32190;49.112;8.598;2022-10-19T02:39:07;20.00;62.10
32147;DHT22;32190;49.112;8.598;2022-10-19T02:45:06;20.00;62.20
32147;DHT22;32190;49.112;8.598;2022-10-19T02:50:57;20.00;62.50
32147;DHT22;32190;49.112;8.598;2022-10-19T02:56:48;20.00;62.80
32147;DHT22;32190;49.112;8.598;2022-10-19T03:02:38;20.00;63.00
32147;DHT22;32190;49.112;8.598;2022-10-19T03:08:29;20.00;63.20
32147;DHT22;32190;49.112;8.598;2022-10-19T03:14:19;20.00;63.50
32147;DHT22;32190;49.112;8.598;2022-10-19T03:20:10;20.00;63.70
32147;DHT22;32190;49.112;8.598;2022-10-19T03:26:01;20.00;63.90
32147;DHT22;32190;49.112;8.598;2022-10-19T03:31:51;20.10;64.10
32147;DHT22;32190;49.112;8.598;2022-10-19T03:37:42;20.10;64.20
32147;DHT22;32190;49.112;8.598;2022-10-19T03:43:33;20.10;64.20
32147;DHT22;32190;49.112;8.598;2022-10-19T03:49:24;20.10;64.30
32147;DHT22;32190;49.112;8.598;2022-10-19T03:55:15;20.10;64.40
32147;DHT22;32190;49.112;8.598;2022-10-19T04:01:11;20.10;64.40
32147;DHT22;32190;49.112;8.598;2022-10-19T04:07:02;20.20;64.50
32147;DHT22;32190;49.112;8.598;2022-10-19T04:12:53;20.20;64.40
32147;DHT22;32190;49.112;8.598;2022-10-19T04:18:43;20.20;64.50
32147;DHT22;32190;49.112;8.598;2022-10-19T04:24:34;20.20;64.50
32147;DHT22;32190;49.112;8.598;2022-10-19T04:30:25;20.20;64.50
32147;DHT22;32190;49.112;8.598;2022-10-19T04:36:35;20.20;64.50
32147;DHT22;32190;49.112;8.598;2022-10-19T04:42:25;20.10;64.80
32147;DHT22;32190;49.112;8.598;2022-10-19T04:48:16;20.10;64.60
32147;DHT22;32190;49.112;8.598;2022-10-19T04:54:06;20.00;64.50
32147;DHT22;32190;49.112;8.598;2022-10-19T04:59:57;19.90;64.60
32147;DHT22;32190;49.112;8.598;2022-10-19T05:05:47;19.80;64.70
32147;DHT22;32190;49.112;8.598;2022-10-19T05:11:38;19.80;64.90
32147;DHT22;32190;49.112;8.598;2022-10-19T05:17:30;19.70;64.90
32147;DHT22;32190;49.112;8.598;2022-10-19T05:23:21;19.70;65.00
32147;DHT22;32190;49.112;8.598;2022-10-19T05:29:12;19.70;65.00
32147;DHT22;32190;49.112;8.598;2022-10-19T05:35:03;19.60;64.90
32147;DHT22;32190;49.112;8.598;2022-10-19T05:40:53;19.60;65.00
32147;DHT22;32190;49.112;8.598;2022-10-19T05:46:45;19.60;65.10
32147;DHT22;32190;49.112;8.598;2022-10-19T05:52:35;19.50;65.00
32147;DHT22;32190;49.112;8.598;2022-10-19T05:58:26;19.50;65.10
32147;DHT22;32190;49.112;8.598;2022-10-19T06:04:16;19.40;65.20
32147;DHT22;32190;49.112;8.598;2022-10-19T06:10:07;19.40;65.40
32147;DHT22;32190;49.112;8.598;2022-10-19T06:15:59;19.40;65.40
32147;DHT22;32190;49.112;8.598;2022-10-19T06:21:50;19.40;65.40
32147;DHT22;32190;49.112;8.598;2022-10-19T06:27:40;19.40;65.40
32147;DHT22;32190;49.112;8.598;2022-10-19T06:33:31;19.40;65.40
32147;DHT22;32190;49.112;8.598;2022-10-19T06:39:22;19.40;65.50
32147;DHT22;32190;49.112;8.598;2022-10-19T06:45:12;19.40;65.50
32147;DHT22;32190;49.112;8.598;2022-10-19T06:51:05;19.40;65.60
32147;DHT22;32190;49.112;8.598;2022-10-19T06:56:56;19.40;65.60
32147;DHT22;32190;49.112;8.598;2022-10-19T07:02:47;19.40;65.60
32147;DHT22;32190;49.112;8.598;2022-10-19T07:08:38;19.40;65.70
32147;DHT22;32190;49.112;8.598;2022-10-19T07:14:29;19.40;65.60
32147;DHT22;32190;49.112;8.598;2022-10-19T07:20:20;19.40;65.60
32147;DHT22;32190;49.112;8.598;2022-10-19T07:26:14;19.40;65.70
32147;DHT22;32190;49.112;8.598;2022-10-19T07:32:05;19.40;65.80
32147;DHT22;32190;49.112;8.598;2022-10-19T07:37:56;19.40;65.90
32147;DHT22;32190;49.112;8.598;2022-10-19T07:43:48;19.40;65.90
32147;DHT22;32190;49.112;8.598;2022-10-19T07:49:39;19.50;65.90
32147;DHT22;32190;49.112;8.598;2022-10-19T07:55:29;19.40;65.80
32147;DHT22;32190;49.112;8.598;2022-10-19T08:01:22;19.40;65.80
32147;DHT22;32190;49.112;8.598;2022-10-19T08:07:13;19.40;66.00
32147;DHT22;32190;49.112;8.598;2022-10-19T08:13:03;19.40;66.00
32147;DHT22;32190;49.112;8.598;2022-10-19T08:19:00;19.40;66.00
32147;DHT22;32190;49.112;8.598;2022-10-19T08:24:51;19.40;66.20
32147;DHT22;32190;49.112;8.598;2022-10-19T08:30:41;19.30;66.20
32147;DHT22;32190;49.112;8.598;2022-10-19T08:36:32;19.30;66.20
32147;DHT22;32190;49.112;8.598;2022-10-19T08:42:54;19.40;66.20
32147;DHT22;32190;49.112;8.598;2022-10-19T08:48:42;19.40;66.30
32147;DHT22;32190;49.112;8.598;2022-10-19T08:54:45;19.40;66.10
32147;DHT22;32190;49.112;8.598;2022-10-19T09:01:02;19.40;66.20
32147;DHT22;32190;49.112;8.598;2022-10-19T09:07:20;19.40;66.30
32147;DHT22;32190;49.112;8.598;2022-10-19T09:19:21;19.50;66.40
32147;DHT22;32190;49.112;8.598;2022-10-19T09:25:20;19.60;66.30
32147;DHT22;32190;49.112;8.598;2022-10-19T09:31:38;19.70;66.30
32147;DHT22;32190;49.112;8.598;2022-10-19T09:37:31;19.70;66.20
32147;DHT22;32190;49.112;8.598;2022-10-19T09:43:25;19.80;65.90
32147;DHT22;32190;49.112;8.598;2022-10-19T09:49:43;20.00;65.90
32147;DHT22;32190;49.112;8.598;2022-10-19T09:55:46;20.00;65.70
32147;DHT22;32190;49.112;8.598;2022-10-19T10:01:39;20.00;65.50
32147;DHT22;32190;49.112;8.598;2022-10-19T10:07:34;20.00;65.40
32147;DHT22;32190;49.112;8.598;2022-10-19T10:13:26;20.00;65.40
32147;DHT22;32190;49.112;8.598;2022-10-19T10:19:17;20.00;65.60
32147;DHT22;32190;49.112;8.598;2022-10-19T10:25:15;20.00;65.60
32147;DHT22;32190;49.112;8.598;2022-10-19T10:31:07;20.10;65.80
32147;DHT22;32190;49.112;8.598;2022-10-19T10:36:58;20.20;65.90
32147;DHT22;32190;49.112;8.598;2022-10-19T10:42:51;20.30;65.80
32147;DHT22;32190;49.112;8.598;2022-10-19T10:48:50;20.30;65.60
32147;DHT22;32190;49.112;8.598;2022-10-19T10:55:14;20.40;65.30
32147;DHT22;32190;49.112;8.598;2022-10-19T11:01:21;20.40;65.10
32147;DHT22;32190;49.112;8.598;2022-10-19T11:07:21;20.50;65.00
32147;DHT22;32190;49.112;8.598;2022-10-19T11:13:34;20.60;64.30
32147;DHT22;32190;49.112;8.598;2022-10-19T11:19:36;20.60;64.00
32147;DHT22;32190;49.112;8.598;2022-10-19T11:25:46;20.50;64.30
32147;DHT22;32190;49.112;8.598;2022-10-19T11:31:51;20.50;64.50
32147;DHT22;32190;49.112;8.598;2022-10-19T11:56:36;20.70;64.10
32147;DHT22;32190;49.112;8.598;2022-10-19T12:14:35;20.80;63.20
32147;DHT22;32190;49.112;8.598;2022-10-19T12:20:37;20.90;63.20
32147;DHT22;32190;49.112;8.598;2022-10-19T12:26:31;21.00;63.00
32147;DHT22;32190;49.112;8.598;2022-10-19T12:32:25;21.00;63.10
32147;DHT22;32190;49.112;8.598;2022-10-19T12:56:48;21.50;62.20
32147;DHT22;32190;49.112;8.598;2022-10-19T13:02:40;21.50;62.10
32147;DHT22;32190;49.112;8.598;2022-10-19T13:09:07;21.60;62.20
32147;DHT22;32190;49.112;8.598;2022-10-19T13:14:57;21.60;62.00
32147;DHT22;32190;49.112;8.598;2022-10-19T13:20:52;21.70;62.00
32147;DHT22;32190;49.112;8.598;2022-10-19T13:26:43;21.70;62.00
32147;DHT22;32190;49.112;8.598;2022-10-19T13:32:35;21.70;62.20
32147;DHT22;32190;49.112;8.598;2022-10-19T13:44:26;21.80;61.90
32147;DHT22;32190;49.112;8.598;2022-10-19T13:50:32;21.80;61.90
32147;DHT22;32190;49.112;8.598;2022-10-19T14:03:02;22.00;61.50
32147;DHT22;32190;49.112;8.598;2022-10-19T14:15:25;21.90;61.30
32147;DHT22;32190;49.112;8.598;2022-10-19T14:21:31;21.90;61.30
32147;DHT22;32190;49.112;8.598;2022-10-19T14:27:23;22.00;61.20
32147;DHT22;32190;49.112;8.598;2022-10-19T14:33:15;22.00;61.50
32147;DHT22;32190;49.112;8.598;2022-10-19T14:39:29;22.10;61.20
32147;DHT22;32190;49.112;8.598;2022-10-19T14:45:28;22.10;60.80
32147;DHT22;32190;49.112;8.598;2022-10-19T14:57:26;22.30;60.70
32147;DHT22;32190;49.112;8.598;2022-10-19T15:03:40;22.40;60.80
32147;DHT22;32190;49.112;8.598;2022-10-19T15:09:34;22.50;60.90
32147;DHT22;32190;49.112;8.598;2022-10-19T15:15:30;22.50;60.20
32147;DHT22;32190;49.112;8.598;2022-10-19T15:21:21;22.50;60.10
32147;DHT22;32190;49.112;8.598;2022-10-19T15:27:21;22.50;60.30
32147;DHT22;32190;49.112;8.598;2022-10-19T15:33:14;22.50;59.90
32147;DHT22;32190;49.112;8.598;2022-10-19T15:39:06;22.50;60.20
32147;DHT22;32190;49.112;8.598;2022-10-19T15:44:57;22.40;60.20
32147;DHT22;32190;49.112;8.598;2022-10-19T15:50:49;22.40;59.90
32147;DHT22;32190;49.112;8.598;2022-10-19T15:56:41;22.30;60.30
32147;DHT22;32190;49.112;8.598;2022-10-19T16:02:32;22.20;60.30
32147;DHT22;32190;49.112;8.598;2022-10-19T16:08:23;22.20;60.20
32147;DHT22;32190;49.112;8.598;2022-10-19T16:14:13;22.10;60.30
32147;DHT22;32190;49.112;8.598;2022-10-19T16:20:05;22.20;60.20
32147;DHT22;32190;49.112;8.598;2022-10-19T16:25:56;22.20;59.90
32147;DHT22;32190;49.112;8.598;2022-10-19T16:31:46;22.20;59.90
32147;DHT22;32190;49.112;8.598;2022-10-19T16:37:37;22.10;59.50
32147;DHT22;32190;49.112;8.598;2022-10-19T16:43:28;22.00;59.60
32147;DHT22;32190;49.112;8.598;2022-10-19T16:49:19;21.90;60.10
32147;DHT22;32190;49.112;8.598;2022-10-19T16:55:09;21.80;60.10
32147;DHT22;32190;49.112;8.598;2022-10-19T17:01:08;21.80;59.70
32147;DHT22;32190;49.112;8.598;2022-10-19T17:06:58;21.70;59.10
32147;DHT22;32190;49.112;8.598;2022-10-19T17:12:49;21.60;59.60
32147;DHT22;32190;49.112;8.598;2022-10-19T17:18:40;21.50;59.80
32147;DHT22;32190;49.112;8.598;2022-10-19T17:24:38;21.40;59.70
32147;DHT22;32190;49.112;8.598;2022-10-19T17:30:29;21.30;59.20
32147;DHT22;32190;49.112;8.598;2022-10-19T17:36:25;21.20;59.60
32147;DHT22;32190;49.112;8.598;2022-10-19T17:42:17;21.00;59.60
32147;DHT22;32190;49.112;8.598;2022-10-19T17:48:10;21.00;60.00
32147;DHT22;32190;49.112;8.598;2022-10-19T17:54:04;20.90;60.00
32147;DHT22;32190;49.112;8.598;2022-10-19T18:00:01;20.80;59.80
32147;DHT22;32190;49.112;8.598;2022-10-19T18:06:03;20.70;59.60
32147;DHT22;32190;49.112;8.598;2022-10-19T18:11:54;20.60;60.10
32147;DHT22;32190;49.112;8.598;2022-10-19T18:17:45;20.50;61.00
32147;DHT22;32190;49.112;8.598;2022-10-19T18:23:36;20.50;60.10
32147;DHT22;32190;49.112;8.598;2022-10-19T18:29:26;20.40;60.10
32147;DHT22;32190;49.112;8.598;2022-10-19T18:35:17;20.40;60.10
32147;DHT22;32190;49.112;8.598;2022-10-19T18:41:10;20.30;60.10
32147;DHT22;32190;49.112;8.598;2022-10-19T18:47:01;20.20;60.40
32147;DHT22;32190;49.112;8.598;2022-10-19T18:52:52;20.00;60.60
32147;DHT22;32190;49.112;8.598;2022-10-19T18:58:42;20.00;60.70
32147;DHT22;32190;49.112;8.598;2022-10-19T19:04:35;19.90;60.70
32147;DHT22;32190;49.112;8.598;2022-10-19T19:10:26;19.90;60.40
32147;DHT22;32190;49.112;8.598;2022-10-19T19:16:17;19.80;60.80
32147;DHT22;32190;49.112;8.598;2022-10-19T19:22:08;19.70;60.70
32147;DHT22;32190;49.112;8.598;2022-10-19T19:27:58;19.70;60.90
32147;DHT22;32190;49.112;8.598;2022-10-19T19:33:49;19.60;61.20
32147;DHT22;32190;49.112;8.598;2022-10-19T19:39:45;19.60;61.00
32147;DHT22;32190;49.112;8.598;2022-10-19T19:45:40;19.60;61.10
32147;DHT22;32190;49.112;8.598;2022-10-19T19:51:32;19.60;60.80
32147;DHT22;32190;49.112;8.598;2022-10-19T19:57:22;19.70;60.80
32147;DHT22;32190;49.112;8.598;2022-10-19T20:03:13;19.70;60.60
32147;DHT22;32190;49.112;8.598;2022-10-19T20:09:06;19.70;60.30
32147;DHT22;32190;49.112;8.598;2022-10-19T20:14:56;19.60;60.50
32147;DHT22;32190;49.112;8.598;2022-10-19T20:20:48;19.50;60.50
32147;DHT22;32190;49.112;8.598;2022-10-19T20:26:38;19.60;61.20
32147;DHT22;32190;49.112;8.598;2022-10-19T20:32:29;19.50;60.60
32147;DHT22;32190;49.112;8.598;2022-10-19T20:38:20;19.50;60.50
32147;DHT22;32190;49.112;8.598;2022-10-19T20:44:10;19.50;60.40
32147;DHT22;32190;49.112;8.598;2022-10-19T20:50:01;19.40;60.30
32147;DHT22;32190;49.112;8.598;2022-10-19T20:55:51;19.40;60.20
32147;DHT22;32190;49.112;8.598;2022-10-19T21:01:43;19.20;60.60
32147;DHT22;32190;49.112;8.598;2022-10-19T21:07:34;19.20;61.10
32147;DHT22;32190;49.112;8.598;2022-10-19T21:13:25;19.20;60.90
32147;DHT22;32190;49.112;8.598;2022-10-19T21:19:18;19.30;60.70
32147;DHT22;32190;49.112;8.598;2022-10-19T21:25:09;19.30;60.30
32147;DHT22;32190;49.112;8.598;2022-10-19T21:31:04;19.20;60.10
32147;DHT22;32190;49.112;8.598;2022-10-19T21:36:55;19.10;60.20
32147;DHT22;32190;49.112;8.598;2022-10-19T21:42:46;19.10;60.30
32147;DHT22;32190;49.112;8.598;2022-10-19T21:48:36;19.00;60.10
32147;DHT22;32190;49.112;8.598;2022-10-19T21:54:27;19.00;59.90
32147;DHT22;32190;49.112;8.598;2022-10-19T22:00:18;18.80;59.80
32147;DHT22;32190;49.112;8.598;2022-10-19T22:06:09;18.70;60.10
32147;DHT22;32190;49.112;8.598;2022-10-19T22:12:00;18.70;60.50
32147;DHT22;32190;49.112;8.598;2022-10-19T22:17:51;18.60;60.50
32147;DHT22;32190;49.112;8.598;2022-10-19T22:23:41;18.60;60.30
32147;DHT22;32190;49.112;8.598;2022-10-19T22:29:32;18.50;60.30
32147;DHT22;32190;49.112;8.598;2022-10-19T22:35:23;18.40;60.80
32147;DHT22;32190;49.112;8.598;2022-10-19T22:41:13;18.40;60.60
32147;DHT22;32190;49.112;8.598;2022-10-19T22:47:04;18.40;60.60
32147;DHT22;32190;49.112;8.598;2022-10-19T22:52:54;18.30;60.50
32147;DHT22;32190;49.112;8.598;2022-10-19T22:58:45;18.30;60.50
32147;DHT22;32190;49.112;8.598;2022-10-19T23:04:35;18.20;60.90
32147;DHT22;32190;49.112;8.598;2022-10-19T23:10:26;18.20;60.70
32147;DHT22;32190;49.112;8.598;2022-10-19T23:16:17;18.10;60.60
32147;DHT22;32190;49.112;8.598;2022-10-19T23:22:07;18.00;60.90
32147;DHT22;32190;49.112;8.598;2022-10-19T23:27:58;18.00;61.20
32147;DHT22;32190;49.112;8.598;2022-10-19T23:33:49;18.00;61.00
32147;DHT22;32190;49.112;8.598;2022-10-19T23:39:40;17.90;61.00
32147;DHT22;32190;49.112;8.598;2022-10-19T23:45:30;17.90;61.00
32147;DHT22;32190;49.112;8.598;2022-10-19T23:51:22;17.80;61.10
32147;DHT22;32190;49.112;8.598;2022-10-19T23:57:13;17.60;61.20
